الصفحة الرئيسية
METAR-TAF:

METAR-TAF

مطار :

Medan, سومطرة الشمالية, إندونيسيا

دائرة عرض: 03-34N, خط طول: 098-41E, ارتفاع: 25 متر

مراقبة الطقس الحالي

تاريخ ووقت الإصدار 32 دقيقة قبل الساعة 06:00UTC
ريح 10 عقدة من الشمال/الشمال الغربي, الاتجاه يتراوح بين الشمال الغربي و الشمال/الشمال الشرقي
درجة الحرارة 33°درجة مئوية
الرطوبة 67%
ضغط 1009 hPa
الرؤية 10 كم أو أكثر
غيوم متفرقة على ارتفاع 1700 قدم

METAR: WIMM 310600Z 34010KT 310V020 9999 SCT017 33/26 Q1009 NOSIG

زمن: 13:32 (06:32 UTC)

توقعات

تاريخ ووقت الإصدار 1ساعة و 32 دقيقة قبل الساعة 05:00UTC
التوقعات صالحة من31 الساعة 06 UTC إلى 01 الساعة 06 UTC
ريح 10 عقدة من الشمال
الرؤية 10 كم أو أكثر
غيوم متفرقة على ارتفاع 1800 قدم
أصبح
من 31 الساعة 10 UTC إلى 31 الساعة 12 UTC
ريح 4 عقدةمن اتجاهات متغيرة
الرؤية: 4000 متر
غيوم قليلة على ارتفاع 1600 قدم, مزنة ركامية.
غيوم متفرقة على ارتفاع 1700 قدم
العجاج
مؤقت
من 31 الساعة 18 UTC إلى 31 الساعة 22 UTC
ريح 3 عقدة من الغرب/الجنوب الغربي
غشاء

TAF: WIMM 310500Z 3106/0106 36010KT 9999 SCT018 BECMG 3110/3112 VRB04KT 4000 HZ FEW016CB SCT017 TEMPO 3118/3122 24003KT BR

أرصاد الطقس والتوقعات من أكثر من 4000 مطار (تقارير الطقس للمطار METAR والتنبؤ بالطقس بالمطارTAF).

المحطات المتاحة هي النقط الصفراء والحمراء على الخريطة.

حرك المؤشر فوق النقطة لمعرفة اسم المحطة.

ثم انقر لمعرفة أرصاد وتوقعات الطقس.

لتغيير الخارطة: اضغط على الأزرار الخضراء مع رمز الصليب الأسود للتكبير. على الزر الأخضر مع شرطة للتصغير، أو على الأسهم الخضراء للخرائط المجاورة.


METAR-TAF: